sensor_id;sensor_type;location;lat;lon;timestamp;temperature;humidity
29501;DHT22;16450;50.288;10.966;2024-01-30T00:01:39;0.00;99.90
29501;DHT22;16450;50.288;10.966;2024-01-30T00:04:41;0.00;99.90
29501;DHT22;16450;50.288;10.966;2024-01-30T00:07:43;0.00;99.90
29501;DHT22;16450;50.288;10.966;2024-01-30T00:10:45;0.00;99.90
29501;DHT22;16450;50.288;10.966;2024-01-30T00:13:47;0.00;99.90
29501;DHT22;16450;50.288;10.966;2024-01-30T00:16:48;-0.10;99.90
29501;DHT22;16450;50.288;10.966;2024-01-30T00:19:50;0.00;99.90
29501;DHT22;16450;50.288;10.966;2024-01-30T00:22:52;0.00;99.90
29501;DHT22;16450;50.288;10.966;2024-01-30T00:25:54;-0.10;99.90
29501;DHT22;16450;50.288;10.966;2024-01-30T00:28:57;0.00;99.90
29501;DHT22;16450;50.288;10.966;2024-01-30T00:31:59;0.00;99.90
29501;DHT22;16450;50.288;10.966;2024-01-30T00:35:01;0.00;99.90
29501;DHT22;16450;50.288;10.966;2024-01-30T00:38:04;0.00;99.90
29501;DHT22;16450;50.288;10.966;2024-01-30T00:41:06;0.00;99.90
29501;DHT22;16450;50.288;10.966;2024-01-30T00:44:08;0.00;99.90
29501;DHT22;16450;50.288;10.966;2024-01-30T00:47:10;0.00;99.90
29501;DHT22;16450;50.288;10.966;2024-01-30T00:50:11;0.00;99.90
29501;DHT22;16450;50.288;10.966;2024-01-30T00:53:13;-0.10;99.90
29501;DHT22;16450;50.288;10.966;2024-01-30T00:56:15;0.00;99.90
29501;DHT22;16450;50.288;10.966;2024-01-30T00:59:20;0.00;99.90
29501;DHT22;16450;50.288;10.966;2024-01-30T01:02:22;-0.10;99.90
29501;DHT22;16450;50.288;10.966;2024-01-30T01:05:24;-0.10;99.90
29501;DHT22;16450;50.288;10.966;2024-01-30T01:08:26;-0.10;99.90
29501;DHT22;16450;50.288;10.966;2024-01-30T01:11:28;-0.10;99.90
29501;DHT22;16450;50.288;10.966;2024-01-30T01:14:30;-0.10;99.90
29501;DHT22;16450;50.288;10.966;2024-01-30T01:17:32;-0.10;99.90
29501;DHT22;16450;50.288;10.966;2024-01-30T01:20:34;-0.10;99.90
29501;DHT22;16450;50.288;10.966;2024-01-30T01:23:36;-0.10;99.90
29501;DHT22;16450;50.288;10.966;2024-01-30T01:26:38;-0.20;99.90
29501;DHT22;16450;50.288;10.966;2024-01-30T01:29:41;-0.20;99.90
29501;DHT22;16450;50.288;10.966;2024-01-30T01:32:42;-0.20;99.90
29501;DHT22;16450;50.288;10.966;2024-01-30T01:35:50;-0.30;99.90
29501;DHT22;16450;50.288;10.966;2024-01-30T01:38:52;-0.30;99.90
29501;DHT22;16450;50.288;10.966;2024-01-30T01:41:54;-0.30;99.90
29501;DHT22;16450;50.288;10.966;2024-01-30T01:44:56;-0.40;99.90
29501;DHT22;16450;50.288;10.966;2024-01-30T01:47:58;-0.40;99.90
29501;DHT22;16450;50.288;10.966;2024-01-30T01:51:00;-0.40;99.90
29501;DHT22;16450;50.288;10.966;2024-01-30T01:54:05;-0.40;99.90
29501;DHT22;16450;50.288;10.966;2024-01-30T01:57:07;-0.40;99.90
29501;DHT22;16450;50.288;10.966;2024-01-30T02:00:10;-0.40;99.90
29501;DHT22;16450;50.288;10.966;2024-01-30T02:03:13;-0.40;99.90
29501;DHT22;16450;50.288;10.966;2024-01-30T02:06:18;-0.50;99.90
29501;DHT22;16450;50.288;10.966;2024-01-30T02:09:20;-0.50;99.90
29501;DHT22;16450;50.288;10.966;2024-01-30T02:12:22;-0.50;99.90
29501;DHT22;16450;50.288;10.966;2024-01-30T02:15:24;-0.50;99.90
29501;DHT22;16450;50.288;10.966;2024-01-30T02:18:26;-0.50;99.90
29501;DHT22;16450;50.288;10.966;2024-01-30T02:21:28;-0.60;99.90
29501;DHT22;16450;50.288;10.966;2024-01-30T02:24:30;-0.60;99.90
29501;DHT22;16450;50.288;10.966;2024-01-30T02:27:31;-0.60;99.90
29501;DHT22;16450;50.288;10.966;2024-01-30T02:30:33;-0.60;99.90
29501;DHT22;16450;50.288;10.966;2024-01-30T02:33:35;-0.60;99.90
29501;DHT22;16450;50.288;10.966;2024-01-30T02:36:37;-0.70;99.90
29501;DHT22;16450;50.288;10.966;2024-01-30T02:39:39;-0.70;99.90
29501;DHT22;16450;50.288;10.966;2024-01-30T02:42:41;-0.70;99.90
29501;DHT22;16450;50.288;10.966;2024-01-30T02:45:43;-0.70;99.90
29501;DHT22;16450;50.288;10.966;2024-01-30T02:48:45;-0.80;99.90
29501;DHT22;16450;50.288;10.966;2024-01-30T02:51:47;-0.80;99.90
29501;DHT22;16450;50.288;10.966;2024-01-30T02:54:49;-0.80;99.90
29501;DHT22;16450;50.288;10.966;2024-01-30T02:57:51;-0.90;99.90
29501;DHT22;16450;50.288;10.966;2024-01-30T03:00:54;-0.80;99.90
29501;DHT22;16450;50.288;10.966;2024-01-30T03:03:56;-0.90;99.90
29501;DHT22;16450;50.288;10.966;2024-01-30T03:06:58;-0.90;99.90
29501;DHT22;16450;50.288;10.966;2024-01-30T03:10:00;-0.90;99.90
29501;DHT22;16450;50.288;10.966;2024-01-30T03:13:02;-0.80;99.90
29501;DHT22;16450;50.288;10.966;2024-01-30T03:16:04;-0.80;99.90
29501;DHT22;16450;50.288;10.966;2024-01-30T03:19:07;-0.80;99.90
29501;DHT22;16450;50.288;10.966;2024-01-30T03:22:12;-0.80;99.90
29501;DHT22;16450;50.288;10.966;2024-01-30T03:25:14;-0.80;99.90
29501;DHT22;16450;50.288;10.966;2024-01-30T03:28:16;-0.80;99.90
29501;DHT22;16450;50.288;10.966;2024-01-30T03:31:18;-0.90;99.90
29501;DHT22;16450;50.288;10.966;2024-01-30T03:34:20;-0.90;99.90
29501;DHT22;16450;50.288;10.966;2024-01-30T03:37:22;-0.90;99.90
29501;DHT22;16450;50.288;10.966;2024-01-30T03:40:24;-0.90;99.90
29501;DHT22;16450;50.288;10.966;2024-01-30T03:43:26;-1.00;99.90
29501;DHT22;16450;50.288;10.966;2024-01-30T03:46:29;-1.00;99.90
29501;DHT22;16450;50.288;10.966;2024-01-30T03:49:30;-1.00;99.90
29501;DHT22;16450;50.288;10.966;2024-01-30T03:52:32;-1.10;99.90
29501;DHT22;16450;50.288;10.966;2024-01-30T03:55:34;-1.10;99.90
29501;DHT22;16450;50.288;10.966;2024-01-30T03:58:36;-1.10;99.90
29501;DHT22;16450;50.288;10.966;2024-01-30T04:01:38;-1.10;99.90
29501;DHT22;16450;50.288;10.966;2024-01-30T04:04:40;-1.20;99.90
29501;DHT22;16450;50.288;10.966;2024-01-30T04:07:42;-1.20;99.90
29501;DHT22;16450;50.288;10.966;2024-01-30T04:10:46;-1.20;99.90
29501;DHT22;16450;50.288;10.966;2024-01-30T04:13:48;-1.30;99.90
29501;DHT22;16450;50.288;10.966;2024-01-30T04:16:50;-1.30;99.90
29501;DHT22;16450;50.288;10.966;2024-01-30T04:19:52;-1.30;99.90
29501;DHT22;16450;50.288;10.966;2024-01-30T04:22:54;-1.40;99.90
29501;DHT22;16450;50.288;10.966;2024-01-30T04:25:56;-1.40;99.90
29501;DHT22;16450;50.288;10.966;2024-01-30T04:28:58;-1.40;99.90
29501;DHT22;16450;50.288;10.966;2024-01-30T04:32:00;-1.50;99.90
29501;DHT22;16450;50.288;10.966;2024-01-30T04:35:02;-1.50;99.90
29501;DHT22;16450;50.288;10.966;2024-01-30T04:38:08;-1.50;99.90
29501;DHT22;16450;50.288;10.966;2024-01-30T04:41:10;-1.50;99.90
29501;DHT22;16450;50.288;10.966;2024-01-30T04:44:12;-1.50;99.90
29501;DHT22;16450;50.288;10.966;2024-01-30T04:47:14;-1.50;99.90
29501;DHT22;16450;50.288;10.966;2024-01-30T04:50:16;-1.60;99.90
29501;DHT22;16450;50.288;10.966;2024-01-30T04:53:18;-1.60;99.90
29501;DHT22;16450;50.288;10.966;2024-01-30T04:56:20;-1.60;99.90
29501;DHT22;16450;50.288;10.966;2024-01-30T04:59:22;-1.60;99.90
29501;DHT22;16450;50.288;10.966;2024-01-30T05:02:24;-1.60;99.90
29501;DHT22;16450;50.288;10.966;2024-01-30T05:05:26;-1.60;99.90
29501;DHT22;16450;50.288;10.966;2024-01-30T05:08:29;-1.70;99.90
29501;DHT22;16450;50.288;10.966;2024-01-30T05:11:31;-1.70;99.90
29501;DHT22;16450;50.288;10.966;2024-01-30T05:14:32;-1.70;99.90
29501;DHT22;16450;50.288;10.966;2024-01-30T05:17:34;-1.70;99.90
29501;DHT22;16450;50.288;10.966;2024-01-30T05:20:37;-1.70;99.90
29501;DHT22;16450;50.288;10.966;2024-01-30T05:23:39;-1.80;99.90
29501;DHT22;16450;50.288;10.966;2024-01-30T05:26:43;-1.80;99.90
29501;DHT22;16450;50.288;10.966;2024-01-30T05:29:45;-1.80;99.90
29501;DHT22;16450;50.288;10.966;2024-01-30T05:32:47;-1.80;99.90
29501;DHT22;16450;50.288;10.966;2024-01-30T05:35:49;-1.80;99.90
29501;DHT22;16450;50.288;10.966;2024-01-30T05:38:51;-1.80;99.90
29501;DHT22;16450;50.288;10.966;2024-01-30T05:41:53;-1.80;99.90
29501;DHT22;16450;50.288;10.966;2024-01-30T05:44:55;-1.80;99.90
29501;DHT22;16450;50.288;10.966;2024-01-30T05:47:57;-1.80;99.90
29501;DHT22;16450;50.288;10.966;2024-01-30T05:50:59;-1.80;99.90
29501;DHT22;16450;50.288;10.966;2024-01-30T05:54:01;-1.80;99.90
29501;DHT22;16450;50.288;10.966;2024-01-30T05:57:05;-1.80;99.90
29501;DHT22;16450;50.288;10.966;2024-01-30T06:00:07;-1.80;99.90
29501;DHT22;16450;50.288;10.966;2024-01-30T06:03:10;-1.80;99.90
29501;DHT22;16450;50.288;10.966;2024-01-30T06:06:12;-1.80;99.90
29501;DHT22;16450;50.288;10.966;2024-01-30T06:09:14;-1.80;99.90
29501;DHT22;16450;50.288;10.966;2024-01-30T06:12:16;-1.80;99.90
29501;DHT22;16450;50.288;10.966;2024-01-30T06:15:18;-1.80;99.90
29501;DHT22;16450;50.288;10.966;2024-01-30T06:18:19;-1.80;99.90
29501;DHT22;16450;50.288;10.966;2024-01-30T06:21:23;-1.80;99.90
29501;DHT22;16450;50.288;10.966;2024-01-30T06:24:25;-1.80;99.90
29501;DHT22;16450;50.288;10.966;2024-01-30T06:27:27;-1.80;99.90
29501;DHT22;16450;50.288;10.966;2024-01-30T06:30:29;-1.80;99.90
29501;DHT22;16450;50.288;10.966;2024-01-30T06:33:31;-1.80;99.90
29501;DHT22;16450;50.288;10.966;2024-01-30T06:36:33;-1.80;99.90
29501;DHT22;16450;50.288;10.966;2024-01-30T06:39:36;-1.80;99.90
29501;DHT22;16450;50.288;10.966;2024-01-30T06:42:37;-1.70;99.90
29501;DHT22;16450;50.288;10.966;2024-01-30T06:45:39;-1.70;99.90
29501;DHT22;16450;50.288;10.966;2024-01-30T06:48:42;-1.80;99.90
29501;DHT22;16450;50.288;10.966;2024-01-30T06:51:46;-1.70;99.90
29501;DHT22;16450;50.288;10.966;2024-01-30T06:54:48;-1.70;99.90
29501;DHT22;16450;50.288;10.966;2024-01-30T06:57:50;-1.70;99.90
29501;DHT22;16450;50.288;10.966;2024-01-30T07:00:52;-1.70;99.90
29501;DHT22;16450;50.288;10.966;2024-01-30T07:03:54;-1.70;99.90
29501;DHT22;16450;50.288;10.966;2024-01-30T07:06:56;-1.70;99.90
29501;DHT22;16450;50.288;10.966;2024-01-30T07:09:59;-1.70;99.90
29501;DHT22;16450;50.288;10.966;2024-01-30T07:13:01;-1.60;99.90
29501;DHT22;16450;50.288;10.966;2024-01-30T07:16:03;-1.60;99.90
29501;DHT22;16450;50.288;10.966;2024-01-30T07:19:05;-1.60;99.90
29501;DHT22;16450;50.288;10.966;2024-01-30T07:22:08;-1.50;99.90
29501;DHT22;16450;50.288;10.966;2024-01-30T07:25:10;-1.50;99.90
29501;DHT22;16450;50.288;10.966;2024-01-30T07:28:12;-1.50;99.90
29501;DHT22;16450;50.288;10.966;2024-01-30T07:31:15;-1.40;99.90
29501;DHT22;16450;50.288;10.966;2024-01-30T07:34:17;-1.40;99.90
29501;DHT22;16450;50.288;10.966;2024-01-30T07:37:19;-1.30;99.90
29501;DHT22;16450;50.288;10.966;2024-01-30T07:40:21;-1.30;99.90
29501;DHT22;16450;50.288;10.966;2024-01-30T07:43:23;-1.20;99.90
29501;DHT22;16450;50.288;10.966;2024-01-30T07:46:26;-1.20;99.90
29501;DHT22;16450;50.288;10.966;2024-01-30T07:49:28;-1.10;99.90
29501;DHT22;16450;50.288;10.966;2024-01-30T07:52:30;-1.10;99.90
29501;DHT22;16450;50.288;10.966;2024-01-30T07:55:32;-1.00;99.90
29501;DHT22;16450;50.288;10.966;2024-01-30T07:58:34;-1.00;99.90
29501;DHT22;16450;50.288;10.966;2024-01-30T08:01:37;-0.90;99.90
29501;DHT22;16450;50.288;10.966;2024-01-30T08:04:39;-0.80;99.90
29501;DHT22;16450;50.288;10.966;2024-01-30T08:07:42;-0.80;99.90
29501;DHT22;16450;50.288;10.966;2024-01-30T08:10:48;-0.70;99.90
29501;DHT22;16450;50.288;10.966;2024-01-30T08:13:51;-0.60;99.90
29501;DHT22;16450;50.288;10.966;2024-01-30T08:16:53;-0.60;99.90
29501;DHT22;16450;50.288;10.966;2024-01-30T08:19:55;-0.50;99.90
29501;DHT22;16450;50.288;10.966;2024-01-30T08:22:56;-0.50;99.90
29501;DHT22;16450;50.288;10.966;2024-01-30T08:25:58;-0.40;99.90
29501;DHT22;16450;50.288;10.966;2024-01-30T08:29:01;-0.30;99.90
29501;DHT22;16450;50.288;10.966;2024-01-30T08:32:05;-0.30;99.90
29501;DHT22;16450;50.288;10.966;2024-01-30T08:35:07;-0.20;99.90
29501;DHT22;16450;50.288;10.966;2024-01-30T08:38:10;-0.20;99.90
29501;DHT22;16450;50.288;10.966;2024-01-30T08:41:14;-0.10;99.90
29501;DHT22;16450;50.288;10.966;2024-01-30T08:44:16;0.00;99.90
29501;DHT22;16450;50.288;10.966;2024-01-30T08:47:19;0.00;99.90
29501;DHT22;16450;50.288;10.966;2024-01-30T08:50:21;0.10;99.90
29501;DHT22;16450;50.288;10.966;2024-01-30T08:53:23;0.10;99.90
29501;DHT22;16450;50.288;10.966;2024-01-30T08:56:24;0.20;99.90
29501;DHT22;16450;50.288;10.966;2024-01-30T08:59:26;0.30;99.90
29501;DHT22;16450;50.288;10.966;2024-01-30T09:02:28;0.30;99.90
29501;DHT22;16450;50.288;10.966;2024-01-30T09:05:30;0.40;99.90
29501;DHT22;16450;50.288;10.966;2024-01-30T09:08:33;0.40;99.90
29501;DHT22;16450;50.288;10.966;2024-01-30T09:11:35;0.50;99.90
29501;DHT22;16450;50.288;10.966;2024-01-30T09:14:38;0.50;99.90
29501;DHT22;16450;50.288;10.966;2024-01-30T09:17:40;0.60;99.90
29501;DHT22;16450;50.288;10.966;2024-01-30T09:20:42;0.70;99.90
29501;DHT22;16450;50.288;10.966;2024-01-30T09:23:45;0.70;99.90
29501;DHT22;16450;50.288;10.966;2024-01-30T09:26:47;0.80;99.90
29501;DHT22;16450;50.288;10.966;2024-01-30T09:29:48;0.90;99.90
29501;DHT22;16450;50.288;10.966;2024-01-30T09:32:51;1.00;99.90
29501;DHT22;16450;50.288;10.966;2024-01-30T09:35:53;1.10;99.90
29501;DHT22;16450;50.288;10.966;2024-01-30T09:38:54;1.10;99.90
29501;DHT22;16450;50.288;10.966;2024-01-30T09:42:09;1.20;99.90
29501;DHT22;16450;50.288;10.966;2024-01-30T09:45:14;1.30;99.90
29501;DHT22;16450;50.288;10.966;2024-01-30T09:48:16;1.40;99.90
29501;DHT22;16450;50.288;10.966;2024-01-30T09:51:19;1.40;99.90
29501;DHT22;16450;50.288;10.966;2024-01-30T09:54:22;1.50;99.90
29501;DHT22;16450;50.288;10.966;2024-01-30T09:57:24;1.60;99.90
29501;DHT22;16450;50.288;10.966;2024-01-30T10:00:27;1.70;99.90
29501;DHT22;16450;50.288;10.966;2024-01-30T10:03:30;1.70;99.90
29501;DHT22;16450;50.288;10.966;2024-01-30T10:06:32;1.80;99.90
29501;DHT22;16450;50.288;10.966;2024-01-30T10:09:34;1.80;99.90
29501;DHT22;16450;50.288;10.966;2024-01-30T10:12:39;1.90;99.90
29501;DHT22;16450;50.288;10.966;2024-01-30T10:15:41;2.00;99.90
29501;DHT22;16450;50.288;10.966;2024-01-30T10:18:43;2.00;99.90
29501;DHT22;16450;50.288;10.966;2024-01-30T10:21:46;2.10;99.90
29501;DHT22;16450;50.288;10.966;2024-01-30T10:24:48;2.10;99.90
29501;DHT22;16450;50.288;10.966;2024-01-30T10:27:54;2.20;99.90
29501;DHT22;16450;50.288;10.966;2024-01-30T10:31:00;2.20;99.90
29501;DHT22;16450;50.288;10.966;2024-01-30T10:34:06;2.30;99.90
29501;DHT22;16450;50.288;10.966;2024-01-30T10:37:21;2.30;99.90
29501;DHT22;16450;50.288;10.966;2024-01-30T10:40:28;2.40;99.90
29501;DHT22;16450;50.288;10.966;2024-01-30T10:43:32;2.50;99.90
29501;DHT22;16450;50.288;10.966;2024-01-30T10:46:38;2.50;99.90
29501;DHT22;16450;50.288;10.966;2024-01-30T10:49:41;2.60;99.90
29501;DHT22;16450;50.288;10.966;2024-01-30T10:52:45;2.70;99.90
29501;DHT22;16450;50.288;10.966;2024-01-30T10:55:47;2.80;99.90
29501;DHT22;16450;50.288;10.966;2024-01-30T10:58:51;2.80;99.90
29501;DHT22;16450;50.288;10.966;2024-01-30T11:01:59;2.90;99.90
29501;DHT22;16450;50.288;10.966;2024-01-30T11:05:05;3.00;99.90
29501;DHT22;16450;50.288;10.966;2024-01-30T11:08:13;3.10;99.90
29501;DHT22;16450;50.288;10.966;2024-01-30T11:11:16;3.20;99.90
29501;DHT22;16450;50.288;10.966;2024-01-30T11:14:31;3.30;99.90
29501;DHT22;16450;50.288;10.966;2024-01-30T11:20:52;3.50;99.90
29501;DHT22;16450;50.288;10.966;2024-01-30T11:23:55;3.50;99.90
29501;DHT22;16450;50.288;10.966;2024-01-30T11:26:57;3.60;99.90
29501;DHT22;16450;50.288;10.966;2024-01-30T11:30:03;3.70;99.90
29501;DHT22;16450;50.288;10.966;2024-01-30T11:33:13;3.80;99.90
29501;DHT22;16450;50.288;10.966;2024-01-30T11:36:15;3.80;99.90
29501;DHT22;16450;50.288;10.966;2024-01-30T11:39:20;3.90;99.90
29501;DHT22;16450;50.288;10.966;2024-01-30T11:42:23;4.00;99.90
29501;DHT22;16450;50.288;10.966;2024-01-30T11:45:31;4.10;99.90
29501;DHT22;16450;50.288;10.966;2024-01-30T11:48:33;4.20;99.90
29501;DHT22;16450;50.288;10.966;2024-01-30T11:51:35;4.20;99.90
29501;DHT22;16450;50.288;10.966;2024-01-30T11:54:40;4.30;99.90
29501;DHT22;16450;50.288;10.966;2024-01-30T11:57:41;4.30;99.90
29501;DHT22;16450;50.288;10.966;2024-01-30T12:00:55;4.40;99.90
29501;DHT22;16450;50.288;10.966;2024-01-30T12:03:59;4.50;99.90
29501;DHT22;16450;50.288;10.966;2024-01-30T12:07:02;4.50;99.90
29501;DHT22;16450;50.288;10.966;2024-01-30T12:10:05;4.60;99.90
29501;DHT22;16450;50.288;10.966;2024-01-30T12:13:07;4.60;99.90
29501;DHT22;16450;50.288;10.966;2024-01-30T12:16:09;4.70;99.90
29501;DHT22;16450;50.288;10.966;2024-01-30T12:19:11;4.70;99.90
29501;DHT22;16450;50.288;10.966;2024-01-30T12:22:22;4.80;99.90
29501;DHT22;16450;50.288;10.966;2024-01-30T12:25:24;4.90;99.90
29501;DHT22;16450;50.288;10.966;2024-01-30T12:28:26;4.90;99.90
29501;DHT22;16450;50.288;10.966;2024-01-30T12:31:28;5.00;99.90
29501;DHT22;16450;50.288;10.966;2024-01-30T12:34:31;5.00;99.90
29501;DHT22;16450;50.288;10.966;2024-01-30T12:37:40;5.10;99.90
29501;DHT22;16450;50.288;10.966;2024-01-30T12:40:42;5.10;99.90
29501;DHT22;16450;50.288;10.966;2024-01-30T12:43:45;5.10;99.90
29501;DHT22;16450;50.288;10.966;2024-01-30T12:46:49;5.20;99.90
29501;DHT22;16450;50.288;10.966;2024-01-30T12:49:51;5.20;99.90
29501;DHT22;16450;50.288;10.966;2024-01-30T12:52:56;5.30;99.90
29501;DHT22;16450;50.288;10.966;2024-01-30T12:55:58;5.30;99.90
29501;DHT22;16450;50.288;10.966;2024-01-30T12:59:00;5.30;99.90
29501;DHT22;16450;50.288;10.966;2024-01-30T13:02:02;5.40;99.90
29501;DHT22;16450;50.288;10.966;2024-01-30T13:05:05;5.40;99.90
29501;DHT22;16450;50.288;10.966;2024-01-30T13:08:07;5.50;99.90
29501;DHT22;16450;50.288;10.966;2024-01-30T13:11:09;5.50;99.90
29501;DHT22;16450;50.288;10.966;2024-01-30T13:14:21;5.50;99.90
29501;DHT22;16450;50.288;10.966;2024-01-30T13:17:23;5.50;99.90
29501;DHT22;16450;50.288;10.966;2024-01-30T13:20:25;5.50;99.90
29501;DHT22;16450;50.288;10.966;2024-01-30T13:23:27;5.60;99.90
29501;DHT22;16450;50.288;10.966;2024-01-30T13:26:31;5.60;99.90
29501;DHT22;16450;50.288;10.966;2024-01-30T13:29:33;5.60;99.90
29501;DHT22;16450;50.288;10.966;2024-01-30T13:32:35;5.60;99.90
29501;DHT22;16450;50.288;10.966;2024-01-30T13:35:37;5.60;99.90
29501;DHT22;16450;50.288;10.966;2024-01-30T13:38:40;5.60;99.90
29501;DHT22;16450;50.288;10.966;2024-01-30T13:41:42;5.60;99.90
29501;DHT22;16450;50.288;10.966;2024-01-30T13:44:44;5.60;99.90
29501;DHT22;16450;50.288;10.966;2024-01-30T13:47:46;5.60;99.90
29501;DHT22;16450;50.288;10.966;2024-01-30T13:50:48;5.60;99.90
29501;DHT22;16450;50.288;10.966;2024-01-30T13:53:50;5.60;99.90
29501;DHT22;16450;50.288;10.966;2024-01-30T13:56:52;5.60;99.90
29501;DHT22;16450;50.288;10.966;2024-01-30T13:59:54;5.60;99.90
29501;DHT22;16450;50.288;10.966;2024-01-30T14:02:56;5.60;99.90
29501;DHT22;16450;50.288;10.966;2024-01-30T14:06:00;5.60;99.90
29501;DHT22;16450;50.288;10.966;2024-01-30T14:09:02;5.60;99.90
29501;DHT22;16450;50.288;10.966;2024-01-30T14:12:09;5.60;99.90
29501;DHT22;16450;50.288;10.966;2024-01-30T14:15:11;5.60;99.90
29501;DHT22;16450;50.288;10.966;2024-01-30T14:18:28;5.60;99.90
29501;DHT22;16450;50.288;10.966;2024-01-30T14:21:30;5.60;99.90
29501;DHT22;16450;50.288;10.966;2024-01-30T14:24:31;5.60;99.90
29501;DHT22;16450;50.288;10.966;2024-01-30T14:27:35;5.60;99.90
29501;DHT22;16450;50.288;10.966;2024-01-30T14:30:37;5.60;99.90
29501;DHT22;16450;50.288;10.966;2024-01-30T14:33:39;5.60;99.90
29501;DHT22;16450;50.288;10.966;2024-01-30T14:36:41;5.60;99.90
29501;DHT22;16450;50.288;10.966;2024-01-30T14:39:43;5.60;99.90
29501;DHT22;16450;50.288;10.966;2024-01-30T14:42:45;5.60;99.90
29501;DHT22;16450;50.288;10.966;2024-01-30T14:45:47;5.60;99.90
29501;DHT22;16450;50.288;10.966;2024-01-30T14:48:51;5.50;99.90
29501;DHT22;16450;50.288;10.966;2024-01-30T14:51:54;5.60;99.90
29501;DHT22;16450;50.288;10.966;2024-01-30T14:54:55;5.50;99.90
29501;DHT22;16450;50.288;10.966;2024-01-30T14:57:57;5.50;99.90
29501;DHT22;16450;50.288;10.966;2024-01-30T15:01:01;5.50;99.90
29501;DHT22;16450;50.288;10.966;2024-01-30T15:04:03;5.40;99.90
29501;DHT22;16450;50.288;10.966;2024-01-30T15:07:05;5.40;99.90
29501;DHT22;16450;50.288;10.966;2024-01-30T15:10:08;5.40;99.90
29501;DHT22;16450;50.288;10.966;2024-01-30T15:13:11;5.30;99.90
29501;DHT22;16450;50.288;10.966;2024-01-30T15:16:14;5.30;99.90
29501;DHT22;16450;50.288;10.966;2024-01-30T15:19:16;5.30;99.90
29501;DHT22;16450;50.288;10.966;2024-01-30T15:22:18;5.20;99.90
29501;DHT22;16450;50.288;10.966;2024-01-30T15:25:20;5.20;99.90
29501;DHT22;16450;50.288;10.966;2024-01-30T15:28:35;5.20;99.90
29501;DHT22;16450;50.288;10.966;2024-01-30T15:31:38;5.10;99.90
29501;DHT22;16450;50.288;10.966;2024-01-30T15:34:40;5.10;99.90
29501;DHT22;16450;50.288;10.966;2024-01-30T15:37:42;5.00;99.90
29501;DHT22;16450;50.288;10.966;2024-01-30T15:40:44;5.00;99.90
29501;DHT22;16450;50.288;10.966;2024-01-30T15:43:46;4.90;99.90
29501;DHT22;16450;50.288;10.966;2024-01-30T15:46:47;4.90;99.90
29501;DHT22;16450;50.288;10.966;2024-01-30T15:49:49;4.80;99.90
29501;DHT22;16450;50.288;10.966;2024-01-30T15:52:52;4.80;99.90
29501;DHT22;16450;50.288;10.966;2024-01-30T15:55:54;4.70;99.90
29501;DHT22;16450;50.288;10.966;2024-01-30T15:58:56;4.70;99.90
29501;DHT22;16450;50.288;10.966;2024-01-30T16:01:58;4.60;99.90
29501;DHT22;16450;50.288;10.966;2024-01-30T16:05:00;4.60;99.90
29501;DHT22;16450;50.288;10.966;2024-01-30T16:08:03;4.50;99.90
29501;DHT22;16450;50.288;10.966;2024-01-30T16:11:05;4.50;99.90
29501;DHT22;16450;50.288;10.966;2024-01-30T16:14:07;4.50;99.90
29501;DHT22;16450;50.288;10.966;2024-01-30T16:17:09;4.40;99.90
29501;DHT22;16450;50.288;10.966;2024-01-30T16:20:11;4.30;99.90
29501;DHT22;16450;50.288;10.966;2024-01-30T16:23:17;4.20;99.90
29501;DHT22;16450;50.288;10.966;2024-01-30T16:26:19;4.20;99.90
29501;DHT22;16450;50.288;10.966;2024-01-30T16:29:22;4.20;99.90
29501;DHT22;16450;50.288;10.966;2024-01-30T16:32:25;4.20;99.90
29501;DHT22;16450;50.288;10.966;2024-01-30T16:35:26;4.10;99.90
29501;DHT22;16450;50.288;10.966;2024-01-30T16:38:47;4.10;99.90
29501;DHT22;16450;50.288;10.966;2024-01-30T16:41:49;4.10;99.90
29501;DHT22;16450;50.288;10.966;2024-01-30T16:44:50;4.10;99.90
29501;DHT22;16450;50.288;10.966;2024-01-30T16:47:52;4.10;99.90
29501;DHT22;16450;50.288;10.966;2024-01-30T16:50:55;4.10;99.90
29501;DHT22;16450;50.288;10.966;2024-01-30T16:53:57;4.10;99.90
29501;DHT22;16450;50.288;10.966;2024-01-30T16:56:59;4.10;99.90
29501;DHT22;16450;50.288;10.966;2024-01-30T17:00:00;4.20;99.90
29501;DHT22;16450;50.288;10.966;2024-01-30T17:03:03;4.20;99.90
29501;DHT22;16450;50.288;10.966;2024-01-30T17:06:05;4.20;99.90
29501;DHT22;16450;50.288;10.966;2024-01-30T17:09:10;4.20;99.90
29501;DHT22;16450;50.288;10.966;2024-01-30T17:12:16;4.20;99.90
29501;DHT22;16450;50.288;10.966;2024-01-30T17:15:18;4.20;99.90
29501;DHT22;16450;50.288;10.966;2024-01-30T17:18:20;4.30;99.90
29501;DHT22;16450;50.288;10.966;2024-01-30T17:21:22;4.20;99.90
29501;DHT22;16450;50.288;10.966;2024-01-30T17:24:24;4.20;99.90
29501;DHT22;16450;50.288;10.966;2024-01-30T17:27:38;4.20;99.90
29501;DHT22;16450;50.288;10.966;2024-01-30T17:30:41;4.20;99.90
29501;DHT22;16450;50.288;10.966;2024-01-30T17:33:43;4.20;99.90
29501;DHT22;16450;50.288;10.966;2024-01-30T17:36:45;4.20;99.90
29501;DHT22;16450;50.288;10.966;2024-01-30T17:39:47;4.10;99.90
29501;DHT22;16450;50.288;10.966;2024-01-30T17:42:51;4.10;99.90
29501;DHT22;16450;50.288;10.966;2024-01-30T17:45:54;4.10;99.90
29501;DHT22;16450;50.288;10.966;2024-01-30T17:48:55;4.00;99.90
29501;DHT22;16450;50.288;10.966;2024-01-30T17:51:57;4.00;99.90
29501;DHT22;16450;50.288;10.966;2024-01-30T17:54:59;4.00;99.90
29501;DHT22;16450;50.288;10.966;2024-01-30T17:58:01;3.90;99.90
29501;DHT22;16450;50.288;10.966;2024-01-30T18:01:04;3.90;99.90
29501;DHT22;16450;50.288;10.966;2024-01-30T18:04:06;3.80;99.90
29501;DHT22;16450;50.288;10.966;2024-01-30T18:07:08;3.80;99.90
29501;DHT22;16450;50.288;10.966;2024-01-30T18:10:10;3.80;99.90
29501;DHT22;16450;50.288;10.966;2024-01-30T18:13:14;3.80;99.90
29501;DHT22;16450;50.288;10.966;2024-01-30T18:16:18;3.70;99.90
29501;DHT22;16450;50.288;10.966;2024-01-30T18:19:20;3.60;99.90
29501;DHT22;16450;50.288;10.966;2024-01-30T18:22:23;3.60;99.90
29501;DHT22;16450;50.288;10.966;2024-01-30T18:25:25;3.50;99.90
29501;DHT22;16450;50.288;10.966;2024-01-30T18:28:27;3.50;99.90
29501;DHT22;16450;50.288;10.966;2024-01-30T18:31:29;3.50;99.90
29501;DHT22;16450;50.288;10.966;2024-01-30T18:34:31;3.50;99.90
29501;DHT22;16450;50.288;10.966;2024-01-30T18:37:33;3.50;99.90
29501;DHT22;16450;50.288;10.966;2024-01-30T18:40:38;3.40;99.90
29501;DHT22;16450;50.288;10.966;2024-01-30T18:43:40;3.40;99.90
29501;DHT22;16450;50.288;10.966;2024-01-30T18:46:42;3.40;99.90
29501;DHT22;16450;50.288;10.966;2024-01-30T18:49:44;3.40;99.90
29501;DHT22;16450;50.288;10.966;2024-01-30T18:52:46;3.40;99.90
29501;DHT22;16450;50.288;10.966;2024-01-30T18:55:48;3.40;99.90
29501;DHT22;16450;50.288;10.966;2024-01-30T18:58:50;3.40;99.90
29501;DHT22;16450;50.288;10.966;2024-01-30T19:01:52;3.40;99.90
29501;DHT22;16450;50.288;10.966;2024-01-30T19:04:55;3.40;99.90
29501;DHT22;16450;50.288;10.966;2024-01-30T19:07:57;3.30;99.90
29501;DHT22;16450;50.288;10.966;2024-01-30T19:10:59;3.40;99.90